sensor_id;sensor_type;location;lat;lon;timestamp;P1;durP1;ratioP1;P2;durP2;ratioP2
50549;SDS011;36505;52.512;13.460;2023-07-24T00:00:19;7.20;;;2.67;;
50549;SDS011;36505;52.512;13.460;2023-07-24T00:02:45;5.32;;;2.97;;
50549;SDS011;36505;52.512;13.460;2023-07-24T00:05:10;4.70;;;2.90;;
50549;SDS011;36505;52.512;13.460;2023-07-24T00:07:36;6.63;;;3.33;;
50549;SDS011;36505;52.512;13.460;2023-07-24T00:10:02;9.98;;;3.30;;
50549;SDS011;36505;52.512;13.460;2023-07-24T00:12:27;5.65;;;3.38;;
50549;SDS011;36505;52.512;13.460;2023-07-24T00:14:53;5.07;;;2.50;;
50549;SDS011;36505;52.512;13.460;2023-07-24T00:17:18;9.02;;;3.30;;
50549;SDS011;36505;52.512;13.460;2023-07-24T00:19:44;4.60;;;2.58;;
50549;SDS011;36505;52.512;13.460;2023-07-24T00:22:09;7.03;;;2.78;;
50549;SDS011;36505;52.512;13.460;2023-07-24T00:24:34;6.38;;;2.42;;
50549;SDS011;36505;52.512;13.460;2023-07-24T00:27:00;6.72;;;3.42;;
50549;SDS011;36505;52.512;13.460;2023-07-24T00:29:25;3.83;;;2.10;;
50549;SDS011;36505;52.512;13.460;2023-07-24T00:31:50;4.57;;;2.63;;
50549;SDS011;36505;52.512;13.460;2023-07-24T00:34:16;5.43;;;2.97;;
50549;SDS011;36505;52.512;13.460;2023-07-24T00:36:41;4.28;;;2.30;;
50549;SDS011;36505;52.512;13.460;2023-07-24T00:39:06;6.28;;;3.00;;
50549;SDS011;36505;52.512;13.460;2023-07-24T00:41:32;5.93;;;2.95;;
50549;SDS011;36505;52.512;13.460;2023-07-24T00:43:57;10.10;;;3.03;;
50549;SDS011;36505;52.512;13.460;2023-07-24T00:46:23;9.43;;;2.92;;
50549;SDS011;36505;52.512;13.460;2023-07-24T00:48:49;6.93;;;3.22;;
50549;SDS011;36505;52.512;13.460;2023-07-24T00:51:15;4.35;;;2.65;;
50549;SDS011;36505;52.512;13.460;2023-07-24T00:53:41;5.95;;;3.28;;
50549;SDS011;36505;52.512;13.460;2023-07-24T00:56:07;5.80;;;2.88;;
50549;SDS011;36505;52.512;13.460;2023-07-24T00:58:33;4.90;;;2.80;;
50549;SDS011;36505;52.512;13.460;2023-07-24T01:01:01;7.22;;;3.00;;
50549;SDS011;36505;52.512;13.460;2023-07-24T01:03:31;6.68;;;2.50;;
50549;SDS011;36505;52.512;13.460;2023-07-24T01:05:58;4.43;;;2.78;;
50549;SDS011;36505;52.512;13.460;2023-07-24T01:08:26;4.90;;;2.65;;
50549;SDS011;36505;52.512;13.460;2023-07-24T01:10:51;6.70;;;2.88;;
50549;SDS011;36505;52.512;13.460;2023-07-24T01:13:19;7.55;;;2.80;;
50549;SDS011;36505;52.512;13.460;2023-07-24T01:15:50;4.70;;;2.95;;
50549;SDS011;36505;52.512;13.460;2023-07-24T01:18:44;5.78;;;2.50;;
50549;SDS011;36505;52.512;13.460;2023-07-24T01:21:11;7.25;;;3.17;;
50549;SDS011;36505;52.512;13.460;2023-07-24T01:23:41;9.15;;;3.30;;
50549;SDS011;36505;52.512;13.460;2023-07-24T01:26:15;5.15;;;2.88;;
50549;SDS011;36505;52.512;13.460;2023-07-24T01:28:41;4.45;;;2.80;;
50549;SDS011;36505;52.512;13.460;2023-07-24T01:31:07;4.63;;;2.42;;
50549;SDS011;36505;52.512;13.460;2023-07-24T01:33:32;4.32;;;3.08;;
50549;SDS011;36505;52.512;13.460;2023-07-24T01:36:00;9.70;;;2.78;;
50549;SDS011;36505;52.512;13.460;2023-07-24T01:38:28;5.97;;;2.35;;
50549;SDS011;36505;52.512;13.460;2023-07-24T01:40:56;7.30;;;3.10;;
50549;SDS011;36505;52.512;13.460;2023-07-24T01:43:22;5.43;;;3.25;;
50549;SDS011;36505;52.512;13.460;2023-07-24T01:45:49;4.20;;;2.70;;
50549;SDS011;36505;52.512;13.460;2023-07-24T01:48:14;4.80;;;2.65;;
50549;SDS011;36505;52.512;13.460;2023-07-24T01:50:40;4.65;;;2.42;;
50549;SDS011;36505;52.512;13.460;2023-07-24T01:53:05;5.05;;;2.55;;
50549;SDS011;36505;52.512;13.460;2023-07-24T01:55:30;4.93;;;2.42;;
50549;SDS011;36505;52.512;13.460;2023-07-24T01:57:56;4.57;;;2.60;;
50549;SDS011;36505;52.512;13.460;2023-07-24T02:00:21;4.93;;;3.35;;
50549;SDS011;36505;52.512;13.460;2023-07-24T02:02:46;4.43;;;2.75;;
50549;SDS011;36505;52.512;13.460;2023-07-24T02:05:12;4.60;;;2.78;;
50549;SDS011;36505;52.512;13.460;2023-07-24T02:07:37;6.90;;;2.60;;
50549;SDS011;36505;52.512;13.460;2023-07-24T02:10:02;4.68;;;3.10;;
50549;SDS011;36505;52.512;13.460;2023-07-24T02:12:28;4.53;;;2.83;;
50549;SDS011;36505;52.512;13.460;2023-07-24T02:14:53;8.70;;;2.90;;
50549;SDS011;36505;52.512;13.460;2023-07-24T02:17:20;6.88;;;3.00;;
50549;SDS011;36505;52.512;13.460;2023-07-24T02:19:45;5.53;;;2.72;;
50549;SDS011;36505;52.512;13.460;2023-07-24T02:22:11;7.35;;;3.20;;
50549;SDS011;36505;52.512;13.460;2023-07-24T02:24:37;6.78;;;2.97;;
50549;SDS011;36505;52.512;13.460;2023-07-24T02:27:02;3.53;;;2.28;;
50549;SDS011;36505;52.512;13.460;2023-07-24T02:29:29;6.25;;;2.75;;
50549;SDS011;36505;52.512;13.460;2023-07-24T02:31:54;4.88;;;2.67;;
50549;SDS011;36505;52.512;13.460;2023-07-24T02:34:23;6.25;;;2.92;;
50549;SDS011;36505;52.512;13.460;2023-07-24T02:36:51;3.72;;;2.40;;
50549;SDS011;36505;52.512;13.460;2023-07-24T02:39:17;5.18;;;3.15;;
50549;SDS011;36505;52.512;13.460;2023-07-24T02:41:43;4.07;;;2.33;;
50549;SDS011;36505;52.512;13.460;2023-07-24T02:44:08;5.10;;;2.65;;
50549;SDS011;36505;52.512;13.460;2023-07-24T02:46:34;6.32;;;2.53;;
50549;SDS011;36505;52.512;13.460;2023-07-24T02:48:59;4.78;;;2.58;;
50549;SDS011;36505;52.512;13.460;2023-07-24T02:51:24;3.78;;;2.45;;
50549;SDS011;36505;52.512;13.460;2023-07-24T02:53:50;5.05;;;2.78;;
50549;SDS011;36505;52.512;13.460;2023-07-24T02:56:15;3.65;;;2.15;;
50549;SDS011;36505;52.512;13.460;2023-07-24T02:58:40;7.40;;;2.92;;
50549;SDS011;36505;52.512;13.460;2023-07-24T03:01:06;5.03;;;2.42;;
50549;SDS011;36505;52.512;13.460;2023-07-24T03:03:32;8.10;;;2.50;;
50549;SDS011;36505;52.512;13.460;2023-07-24T03:05:58;3.67;;;2.40;;
50549;SDS011;36505;52.512;13.460;2023-07-24T03:08:24;5.30;;;2.22;;
50549;SDS011;36505;52.512;13.460;2023-07-24T03:10:49;6.32;;;2.25;;
50549;SDS011;36505;52.512;13.460;2023-07-24T03:13:15;7.25;;;2.90;;
50549;SDS011;36505;52.512;13.460;2023-07-24T03:15:40;4.35;;;2.45;;
50549;SDS011;36505;52.512;13.460;2023-07-24T03:18:06;6.93;;;2.58;;
50549;SDS011;36505;52.512;13.460;2023-07-24T03:20:31;5.30;;;2.28;;
50549;SDS011;36505;52.512;13.460;2023-07-24T03:22:56;4.22;;;2.30;;
50549;SDS011;36505;52.512;13.460;2023-07-24T03:25:22;5.60;;;2.53;;
50549;SDS011;36505;52.512;13.460;2023-07-24T03:27:47;8.52;;;2.40;;
50549;SDS011;36505;52.512;13.460;2023-07-24T03:30:13;2.95;;;1.83;;
50549;SDS011;36505;52.512;13.460;2023-07-24T03:32:38;6.18;;;2.10;;
50549;SDS011;36505;52.512;13.460;2023-07-24T03:35:04;3.75;;;1.75;;
50549;SDS011;36505;52.512;13.460;2023-07-24T03:37:31;3.47;;;1.85;;
50549;SDS011;36505;52.512;13.460;2023-07-24T03:39:56;4.15;;;2.20;;
50549;SDS011;36505;52.512;13.460;2023-07-24T03:42:26;5.60;;;2.22;;
50549;SDS011;36505;52.512;13.460;2023-07-24T03:44:52;3.38;;;1.70;;
50549;SDS011;36505;52.512;13.460;2023-07-24T03:47:18;3.38;;;2.15;;
50549;SDS011;36505;52.512;13.460;2023-07-24T03:49:43;4.45;;;2.08;;
50549;SDS011;36505;52.512;13.460;2023-07-24T03:52:09;4.38;;;2.55;;
50549;SDS011;36505;52.512;13.460;2023-07-24T03:54:34;7.05;;;4.10;;
50549;SDS011;36505;52.512;13.460;2023-07-24T03:56:59;4.18;;;2.17;;
50549;SDS011;36505;52.512;13.460;2023-07-24T03:59:25;3.80;;;2.10;;
50549;SDS011;36505;52.512;13.460;2023-07-24T04:01:50;7.35;;;4.22;;
50549;SDS011;36505;52.512;13.460;2023-07-24T04:04:15;3.08;;;1.90;;
50549;SDS011;36505;52.512;13.460;2023-07-24T04:06:41;4.10;;;1.75;;
50549;SDS011;36505;52.512;13.460;2023-07-24T04:09:06;3.90;;;1.83;;
50549;SDS011;36505;52.512;13.460;2023-07-24T04:11:31;2.17;;;1.50;;
50549;SDS011;36505;52.512;13.460;2023-07-24T04:13:57;3.03;;;1.83;;
50549;SDS011;36505;52.512;13.460;2023-07-24T04:16:22;2.00;;;1.45;;
50549;SDS011;36505;52.512;13.460;2023-07-24T04:18:49;2.38;;;1.50;;
50549;SDS011;36505;52.512;13.460;2023-07-24T04:21:14;4.68;;;1.40;;
50549;SDS011;36505;52.512;13.460;2023-07-24T04:23:39;2.65;;;1.52;;
50549;SDS011;36505;52.512;13.460;2023-07-24T04:26:05;2.83;;;1.50;;
50549;SDS011;36505;52.512;13.460;2023-07-24T04:28:30;2.22;;;1.40;;
50549;SDS011;36505;52.512;13.460;2023-07-24T04:30:59;4.50;;;1.70;;
50549;SDS011;36505;52.512;13.460;2023-07-24T04:33:25;2.88;;;1.52;;
50549;SDS011;36505;52.512;13.460;2023-07-24T04:35:52;2.05;;;1.40;;
50549;SDS011;36505;52.512;13.460;2023-07-24T04:38:18;3.08;;;1.42;;
50549;SDS011;36505;52.512;13.460;2023-07-24T04:40:43;2.25;;;1.65;;
50549;SDS011;36505;52.512;13.460;2023-07-24T04:43:10;7.00;;;1.80;;
50549;SDS011;36505;52.512;13.460;2023-07-24T04:45:35;1.73;;;1.27;;
50549;SDS011;36505;52.512;13.460;2023-07-24T04:48:00;3.42;;;1.98;;
50549;SDS011;36505;52.512;13.460;2023-07-24T04:50:26;3.88;;;1.95;;
50549;SDS011;36505;52.512;13.460;2023-07-24T04:52:51;5.22;;;1.88;;
50549;SDS011;36505;52.512;13.460;2023-07-24T04:55:17;4.15;;;2.30;;
50549;SDS011;36505;52.512;13.460;2023-07-24T04:57:42;3.05;;;1.60;;
50549;SDS011;36505;52.512;13.460;2023-07-24T05:00:07;3.95;;;1.90;;
50549;SDS011;36505;52.512;13.460;2023-07-24T05:02:33;2.40;;;1.45;;
50549;SDS011;36505;52.512;13.460;2023-07-24T05:04:59;4.80;;;2.30;;
50549;SDS011;36505;52.512;13.460;2023-07-24T05:07:24;2.30;;;1.40;;
50549;SDS011;36505;52.512;13.460;2023-07-24T05:09:49;4.18;;;1.60;;
50549;SDS011;36505;52.512;13.460;2023-07-24T05:12:15;3.92;;;1.77;;
50549;SDS011;36505;52.512;13.460;2023-07-24T05:14:40;3.67;;;1.52;;
50549;SDS011;36505;52.512;13.460;2023-07-24T05:17:05;3.20;;;2.05;;
50549;SDS011;36505;52.512;13.460;2023-07-24T05:19:31;3.78;;;1.50;;
50549;SDS011;36505;52.512;13.460;2023-07-24T05:21:56;5.15;;;2.20;;
50549;SDS011;36505;52.512;13.460;2023-07-24T05:24:22;3.17;;;1.55;;
50549;SDS011;36505;52.512;13.460;2023-07-24T05:26:47;6.10;;;1.63;;
50549;SDS011;36505;52.512;13.460;2023-07-24T05:29:12;3.97;;;1.40;;
50549;SDS011;36505;52.512;13.460;2023-07-24T05:31:38;4.43;;;2.00;;
50549;SDS011;36505;52.512;13.460;2023-07-24T05:34:03;3.10;;;1.60;;
50549;SDS011;36505;52.512;13.460;2023-07-24T05:36:29;5.50;;;1.65;;
50549;SDS011;36505;52.512;13.460;2023-07-24T05:38:54;4.88;;;1.50;;
50549;SDS011;36505;52.512;13.460;2023-07-24T05:41:20;2.45;;;1.30;;
50549;SDS011;36505;52.512;13.460;2023-07-24T05:43:45;3.38;;;1.30;;
50549;SDS011;36505;52.512;13.460;2023-07-24T05:46:10;7.00;;;4.05;;
50549;SDS011;36505;52.512;13.460;2023-07-24T05:48:36;7.10;;;3.00;;
50549;SDS011;36505;52.512;13.460;2023-07-24T05:51:01;5.20;;;2.35;;
50549;SDS011;36505;52.512;13.460;2023-07-24T05:53:27;2.45;;;1.70;;
50549;SDS011;36505;52.512;13.460;2023-07-24T05:56:01;2.63;;;1.50;;
50549;SDS011;36505;52.512;13.460;2023-07-24T05:58:27;2.17;;;1.27;;
50549;SDS011;36505;52.512;13.460;2023-07-24T06:00:53;2.78;;;1.30;;
50549;SDS011;36505;52.512;13.460;2023-07-24T06:03:19;2.67;;;1.27;;
50549;SDS011;36505;52.512;13.460;2023-07-24T06:05:45;1.98;;;1.10;;
50549;SDS011;36505;52.512;13.460;2023-07-24T06:08:10;2.72;;;1.42;;
50549;SDS011;36505;52.512;13.460;2023-07-24T06:10:36;5.45;;;1.42;;
50549;SDS011;36505;52.512;13.460;2023-07-24T06:13:02;2.65;;;1.13;;
50549;SDS011;36505;52.512;13.460;2023-07-24T06:15:27;3.50;;;1.98;;
50549;SDS011;36505;52.512;13.460;2023-07-24T06:17:53;5.55;;;1.58;;
50549;SDS011;36505;52.512;13.460;2023-07-24T06:20:18;2.10;;;1.20;;
50549;SDS011;36505;52.512;13.460;2023-07-24T06:22:43;1.52;;;1.20;;
50549;SDS011;36505;52.512;13.460;2023-07-24T06:25:09;2.05;;;1.30;;
50549;SDS011;36505;52.512;13.460;2023-07-24T06:27:34;4.07;;;1.52;;
50549;SDS011;36505;52.512;13.460;2023-07-24T06:29:59;3.65;;;1.67;;
50549;SDS011;36505;52.512;13.460;2023-07-24T06:32:25;2.63;;;1.30;;
50549;SDS011;36505;52.512;13.460;2023-07-24T06:34:50;3.53;;;1.70;;
50549;SDS011;36505;52.512;13.460;2023-07-24T06:37:16;1.98;;;1.58;;
50549;SDS011;36505;52.512;13.460;2023-07-24T06:39:41;2.50;;;1.80;;
50549;SDS011;36505;52.512;13.460;2023-07-24T06:42:07;3.80;;;1.80;;
50549;SDS011;36505;52.512;13.460;2023-07-24T06:44:32;3.08;;;1.58;;
50549;SDS011;36505;52.512;13.460;2023-07-24T06:46:58;5.85;;;1.90;;
50549;SDS011;36505;52.512;13.460;2023-07-24T06:49:23;2.17;;;1.65;;
50549;SDS011;36505;52.512;13.460;2023-07-24T06:51:48;5.03;;;1.95;;
50549;SDS011;36505;52.512;13.460;2023-07-24T06:54:14;3.10;;;2.05;;
50549;SDS011;36505;52.512;13.460;2023-07-24T06:56:39;2.97;;;1.95;;
50549;SDS011;36505;52.512;13.460;2023-07-24T06:59:04;2.78;;;1.85;;
50549;SDS011;36505;52.512;13.460;2023-07-24T07:01:30;5.50;;;1.95;;
50549;SDS011;36505;52.512;13.460;2023-07-24T07:03:55;3.95;;;2.63;;
50549;SDS011;36505;52.512;13.460;2023-07-24T07:06:21;1.52;;;1.25;;
50549;SDS011;36505;52.512;13.460;2023-07-24T07:08:46;3.22;;;1.67;;
50549;SDS011;36505;52.512;13.460;2023-07-24T07:11:11;2.97;;;1.52;;
50549;SDS011;36505;52.512;13.460;2023-07-24T07:13:37;4.13;;;1.55;;
50549;SDS011;36505;52.512;13.460;2023-07-24T07:16:02;2.80;;;1.52;;
50549;SDS011;36505;52.512;13.460;2023-07-24T07:18:28;2.17;;;1.60;;
50549;SDS011;36505;52.512;13.460;2023-07-24T07:20:53;2.65;;;1.60;;
50549;SDS011;36505;52.512;13.460;2023-07-24T07:23:19;1.70;;;1.38;;
50549;SDS011;36505;52.512;13.460;2023-07-24T07:25:45;3.25;;;1.80;;
50549;SDS011;36505;52.512;13.460;2023-07-24T07:28:15;2.85;;;1.60;;
50549;SDS011;36505;52.512;13.460;2023-07-24T07:30:41;2.08;;;1.77;;
50549;SDS011;36505;52.512;13.460;2023-07-24T07:33:07;4.85;;;2.95;;
50549;SDS011;36505;52.512;13.460;2023-07-24T07:35:34;3.25;;;1.83;;
50549;SDS011;36505;52.512;13.460;2023-07-24T07:38:00;3.10;;;1.92;;
50549;SDS011;36505;52.512;13.460;2023-07-24T07:40:27;2.83;;;1.70;;
50549;SDS011;36505;52.512;13.460;2023-07-24T07:42:53;2.88;;;1.90;;
50549;SDS011;36505;52.512;13.460;2023-07-24T07:45:19;3.40;;;2.10;;
50549;SDS011;36505;52.512;13.460;2023-07-24T07:47:44;4.18;;;2.22;;
50549;SDS011;36505;52.512;13.460;2023-07-24T07:50:10;2.28;;;1.70;;
50549;SDS011;36505;52.512;13.460;2023-07-24T07:52:35;3.08;;;1.88;;
50549;SDS011;36505;52.512;13.460;2023-07-24T07:55:01;3.10;;;2.00;;
50549;SDS011;36505;52.512;13.460;2023-07-24T07:57:26;4.10;;;2.22;;
50549;SDS011;36505;52.512;13.460;2023-07-24T07:59:52;4.20;;;2.00;;
50549;SDS011;36505;52.512;13.460;2023-07-24T08:02:17;3.92;;;1.90;;
50549;SDS011;36505;52.512;13.460;2023-07-24T08:04:42;3.10;;;1.83;;
50549;SDS011;36505;52.512;13.460;2023-07-24T08:07:08;5.10;;;1.77;;
50549;SDS011;36505;52.512;13.460;2023-07-24T08:09:33;5.43;;;1.95;;
50549;SDS011;36505;52.512;13.460;2023-07-24T08:11:59;2.70;;;2.00;;
50549;SDS011;36505;52.512;13.460;2023-07-24T08:14:24;2.85;;;1.80;;
50549;SDS011;36505;52.512;13.460;2023-07-24T08:16:50;2.53;;;1.70;;
50549;SDS011;36505;52.512;13.460;2023-07-24T08:19:16;8.93;;;1.80;;
50549;SDS011;36505;52.512;13.460;2023-07-24T08:21:41;7.57;;;2.05;;
50549;SDS011;36505;52.512;13.460;2023-07-24T08:24:07;5.50;;;1.98;;
50549;SDS011;36505;52.512;13.460;2023-07-24T08:26:32;2.58;;;1.52;;
50549;SDS011;36505;52.512;13.460;2023-07-24T08:28:58;4.03;;;1.67;;
50549;SDS011;36505;52.512;13.460;2023-07-24T08:31:23;1.70;;;1.50;;
50549;SDS011;36505;52.512;13.460;2023-07-24T08:33:49;3.92;;;1.75;;
50549;SDS011;36505;52.512;13.460;2023-07-24T08:36:14;3.13;;;1.40;;
50549;SDS011;36505;52.512;13.460;2023-07-24T08:38:40;1.95;;;1.45;;
50549;SDS011;36505;52.512;13.460;2023-07-24T08:41:11;2.35;;;1.70;;
50549;SDS011;36505;52.512;13.460;2023-07-24T08:43:39;2.97;;;1.87;;
50549;SDS011;36505;52.512;13.460;2023-07-24T08:46:06;4.32;;;1.95;;
50549;SDS011;36505;52.512;13.460;2023-07-24T08:48:33;14.85;;;2.30;;
50549;SDS011;36505;52.512;13.460;2023-07-24T08:51:03;15.52;;;2.53;;
50549;SDS011;36505;52.512;13.460;2023-07-24T08:53:29;8.52;;;2.28;;
50549;SDS011;36505;52.512;13.460;2023-07-24T08:55:56;15.18;;;2.20;;
50549;SDS011;36505;52.512;13.460;2023-07-24T08:58:22;7.75;;;2.45;;
50549;SDS011;36505;52.512;13.460;2023-07-24T09:00:47;5.68;;;2.10;;
50549;SDS011;36505;52.512;13.460;2023-07-24T09:03:13;8.75;;;2.35;;
50549;SDS011;36505;52.512;13.460;2023-07-24T09:05:38;37.78;;;3.42;;
50549;SDS011;36505;52.512;13.460;2023-07-24T09:08:04;26.30;;;3.03;;
50549;SDS011;36505;52.512;13.460;2023-07-24T09:10:29;17.88;;;2.78;;
50549;SDS011;36505;52.512;13.460;2023-07-24T09:12:55;22.58;;;3.40;;
50549;SDS011;36505;52.512;13.460;2023-07-24T09:15:20;58.60;;;6.38;;
50549;SDS011;36505;52.512;13.460;2023-07-24T09:17:53;21.88;;;3.00;;
50549;SDS011;36505;52.512;13.460;2023-07-24T09:20:19;13.27;;;2.33;;
50549;SDS011;36505;52.512;13.460;2023-07-24T09:22:51;8.30;;;2.05;;
50549;SDS011;36505;52.512;13.460;2023-07-24T09:25:18;2.88;;;1.70;;
50549;SDS011;36505;52.512;13.460;2023-07-24T09:27:43;4.82;;;1.48;;
50549;SDS011;36505;52.512;13.460;2023-07-24T09:30:13;8.02;;;1.90;;
50549;SDS011;36505;52.512;13.460;2023-07-24T09:32:40;3.47;;;1.67;;
50549;SDS011;36505;52.512;13.460;2023-07-24T09:35:26;2.15;;;1.27;;
50549;SDS011;36505;52.512;13.460;2023-07-24T09:40:27;5.30;;;2.47;;
50549;SDS011;36505;52.512;13.460;2023-07-24T09:42:53;11.18;;;2.30;;
50549;SDS011;36505;52.512;13.460;2023-07-24T09:45:18;3.72;;;1.67;;
50549;SDS011;36505;52.512;13.460;2023-07-24T09:47:44;2.33;;;1.67;;
50549;SDS011;36505;52.512;13.460;2023-07-24T09:50:10;3.05;;;1.90;;
50549;SDS011;36505;52.512;13.460;2023-07-24T09:52:36;4.60;;;1.80;;
50549;SDS011;36505;52.512;13.460;2023-07-24T09:57:46;3.95;;;1.77;;
50549;SDS011;36505;52.512;13.460;2023-07-24T10:00:14;3.95;;;2.08;;
50549;SDS011;36505;52.512;13.460;2023-07-24T10:02:40;4.60;;;2.55;;
50549;SDS011;36505;52.512;13.460;2023-07-24T10:05:06;7.13;;;1.80;;
50549;SDS011;36505;52.512;13.460;2023-07-24T10:07:32;6.07;;;2.25;;
50549;SDS011;36505;52.512;13.460;2023-07-24T10:09:58;2.97;;;1.60;;
50549;SDS011;36505;52.512;13.460;2023-07-24T10:12:23;3.88;;;1.90;;
50549;SDS011;36505;52.512;13.460;2023-07-24T10:14:52;4.28;;;1.73;;
50549;SDS011;36505;52.512;13.460;2023-07-24T10:17:38;4.85;;;2.50;;
50549;SDS011;36505;52.512;13.460;2023-07-24T10:20:06;2.90;;;2.05;;
50549;SDS011;36505;52.512;13.460;2023-07-24T10:22:33;4.22;;;2.25;;
50549;SDS011;36505;52.512;13.460;2023-07-24T10:24:58;4.20;;;2.80;;
50549;SDS011;36505;52.512;13.460;2023-07-24T10:27:24;4.53;;;2.47;;
50549;SDS011;36505;52.512;13.460;2023-07-24T10:29:59;6.47;;;2.88;;
50549;SDS011;36505;52.512;13.460;2023-07-24T10:32:26;11.30;;;2.60;;
50549;SDS011;36505;52.512;13.460;2023-07-24T10:35:24;6.03;;;3.03;;
50549;SDS011;36505;52.512;13.460;2023-07-24T10:37:45;5.78;;;2.50;;
50549;SDS011;36505;52.512;13.460;2023-07-24T10:40:18;3.95;;;2.47;;
50549;SDS011;36505;52.512;13.460;2023-07-24T10:42:45;6.80;;;3.25;;
50549;SDS011;36505;52.512;13.460;2023-07-24T10:45:10;6.72;;;3.20;;
50549;SDS011;36505;52.512;13.460;2023-07-24T10:47:36;5.13;;;2.88;;
50549;SDS011;36505;52.512;13.460;2023-07-24T10:50:02;10.82;;;3.50;;
50549;SDS011;36505;52.512;13.460;2023-07-24T10:52:29;5.90;;;3.13;;
50549;SDS011;36505;52.512;13.460;2023-07-24T10:55:02;5.10;;;2.90;;
50549;SDS011;36505;52.512;13.460;2023-07-24T10:57:31;9.00;;;4.00;;
50549;SDS011;36505;52.512;13.460;2023-07-24T10:59:56;9.60;;;3.15;;
50549;SDS011;36505;52.512;13.460;2023-07-24T11:02:22;7.65;;;2.90;;
50549;SDS011;36505;52.512;13.460;2023-07-24T11:04:48;8.25;;;3.70;;
50549;SDS011;36505;52.512;13.460;2023-07-24T11:07:14;9.23;;;3.58;;
50549;SDS011;36505;52.512;13.460;2023-07-24T11:09:40;5.88;;;3.47;;
50549;SDS011;36505;52.512;13.460;2023-07-24T11:12:09;12.00;;;3.88;;
50549;SDS011;36505;52.512;13.460;2023-07-24T11:14:52;7.13;;;3.58;;
50549;SDS011;36505;52.512;13.460;2023-07-24T11:17:21;9.35;;;3.78;;
50549;SDS011;36505;52.512;13.460;2023-07-24T11:19:46;6.38;;;3.88;;
50549;SDS011;36505;52.512;13.460;2023-07-24T11:22:12;6.72;;;4.07;;
50549;SDS011;36505;52.512;13.460;2023-07-24T11:24:42;8.43;;;3.90;;
50549;SDS011;36505;52.512;13.460;2023-07-24T11:27:10;5.88;;;3.83;;
50549;SDS011;36505;52.512;13.460;2023-07-24T11:29:39;5.38;;;3.60;;
50549;SDS011;36505;52.512;13.460;2023-07-24T11:32:05;5.57;;;3.33;;
50549;SDS011;36505;52.512;13.460;2023-07-24T11:34:31;7.68;;;3.28;;
50549;SDS011;36505;52.512;13.460;2023-07-24T11:36:57;5.50;;;3.72;;
50549;SDS011;36505;52.512;13.460;2023-07-24T11:39:23;7.57;;;3.33;;
50549;SDS011;36505;52.512;13.460;2023-07-24T11:41:49;7.00;;;3.83;;
50549;SDS011;36505;52.512;13.460;2023-07-24T11:44:14;8.10;;;3.60;;
50549;SDS011;36505;52.512;13.460;2023-07-24T11:46:42;6.18;;;3.20;;
50549;SDS011;36505;52.512;13.460;2023-07-24T11:49:08;8.23;;;4.07;;
50549;SDS011;36505;52.512;13.460;2023-07-24T11:51:36;9.27;;;3.83;;
50549;SDS011;36505;52.512;13.460;2023-07-24T11:54:08;6.35;;;3.97;;
50549;SDS011;36505;52.512;13.460;2023-07-24T11:56:36;6.30;;;4.10;;
50549;SDS011;36505;52.512;13.460;2023-07-24T11:59:14;14.27;;;4.15;;
50549;SDS011;36505;52.512;13.460;2023-07-24T12:01:40;8.57;;;4.68;;
50549;SDS011;36505;52.512;13.460;2023-07-24T12:04:10;10.50;;;3.80;;
50549;SDS011;36505;52.512;13.460;2023-07-24T12:06:35;5.40;;;3.28;;
50549;SDS011;36505;52.512;13.460;2023-07-24T12:09:03;8.75;;;3.88;;
50549;SDS011;36505;52.512;13.460;2023-07-24T12:11:32;6.38;;;3.63;;
50549;SDS011;36505;52.512;13.460;2023-07-24T12:13:58;12.48;;;3.88;;
50549;SDS011;36505;52.512;13.460;2023-07-24T12:16:23;10.40;;;4.22;;
50549;SDS011;36505;52.512;13.460;2023-07-24T12:18:49;10.73;;;4.00;;
50549;SDS011;36505;52.512;13.460;2023-07-24T12:21:14;7.53;;;4.35;;
50549;SDS011;36505;52.512;13.460;2023-07-24T12:23:40;7.78;;;4.32;;
50549;SDS011;36505;52.512;13.460;2023-07-24T12:26:05;9.07;;;3.97;;
50549;SDS011;36505;52.512;13.460;2023-07-24T12:28:31;15.07;;;3.63;;
50549;SDS011;36505;52.512;13.460;2023-07-24T12:30:56;11.07;;;3.30;;
50549;SDS011;36505;52.512;13.460;2023-07-24T12:33:21;10.07;;;4.07;;
50549;SDS011;36505;52.512;13.460;2023-07-24T12:35:50;16.55;;;3.50;;
50549;SDS011;36505;52.512;13.460;2023-07-24T12:38:16;8.43;;;3.47;;
50549;SDS011;36505;52.512;13.460;2023-07-24T12:40:41;6.97;;;3.75;;
50549;SDS011;36505;52.512;13.460;2023-07-24T12:43:06;10.35;;;3.92;;
50549;SDS011;36505;52.512;13.460;2023-07-24T12:45:32;10.15;;;3.78;;
50549;SDS011;36505;52.512;13.460;2023-07-24T12:47:57;14.73;;;5.05;;
50549;SDS011;36505;52.512;13.460;2023-07-24T12:50:23;12.40;;;3.75;;
50549;SDS011;36505;52.512;13.460;2023-07-24T12:52:49;8.50;;;3.38;;
50549;SDS011;36505;52.512;13.460;2023-07-24T12:55:15;13.10;;;3.45;;
50549;SDS011;36505;52.512;13.460;2023-07-24T12:57:40;8.27;;;3.20;;
50549;SDS011;36505;52.512;13.460;2023-07-24T13:00:06;7.95;;;3.58;;
50549;SDS011;36505;52.512;13.460;2023-07-24T13:02:31;6.45;;;3.92;;
50549;SDS011;36505;52.512;13.460;2023-07-24T13:04:58;7.60;;;3.35;;
50549;SDS011;36505;52.512;13.460;2023-07-24T13:07:24;6.78;;;3.28;;
50549;SDS011;36505;52.512;13.460;2023-07-24T13:09:49;6.60;;;3.30;;
50549;SDS011;36505;52.512;13.460;2023-07-24T13:12:15;9.27;;;3.38;;
50549;SDS011;36505;52.512;13.460;2023-07-24T13:14:40;12.02;;;3.50;;
50549;SDS011;36505;52.512;13.460;2023-07-24T13:17:11;6.03;;;2.90;;
50549;SDS011;36505;52.512;13.460;2023-07-24T13:19:37;4.88;;;2.65;;
50549;SDS011;36505;52.512;13.460;2023-07-24T13:22:22;5.93;;;2.92;;
50549;SDS011;36505;52.512;13.460;2023-07-24T13:24:48;6.32;;;3.15;;
50549;SDS011;36505;52.512;13.460;2023-07-24T13:27:13;6.05;;;2.60;;
50549;SDS011;36505;52.512;13.460;2023-07-24T13:29:38;11.73;;;3.13;;
50549;SDS011;36505;52.512;13.460;2023-07-24T13:32:04;4.47;;;2.50;;
50549;SDS011;36505;52.512;13.460;2023-07-24T13:34:29;5.63;;;3.17;;
50549;SDS011;36505;52.512;13.460;2023-07-24T13:36:55;6.93;;;3.30;;
50549;SDS011;36505;52.512;13.460;2023-07-24T13:39:21;5.57;;;2.97;;
50549;SDS011;36505;52.512;13.460;2023-07-24T13:41:46;6.85;;;2.53;;
50549;SDS011;36505;52.512;13.460;2023-07-24T13:44:12;7.88;;;3.00;;
50549;SDS011;36505;52.512;13.460;2023-07-24T13:46:37;6.50;;;2.72;;
50549;SDS011;36505;52.512;13.460;2023-07-24T13:49:02;5.25;;;2.92;;
50549;SDS011;36505;52.512;13.460;2023-07-24T13:51:28;6.38;;;3.33;;
50549;SDS011;36505;52.512;13.460;2023-07-24T13:53:53;7.82;;;3.10;;
50549;SDS011;36505;52.512;13.460;2023-07-24T13:56:22;3.90;;;2.85;;
50549;SDS011;36505;52.512;13.460;2023-07-24T13:58:48;9.32;;;2.95;;
50549;SDS011;36505;52.512;13.460;2023-07-24T14:01:14;8.35;;;3.47;;
50549;SDS011;36505;52.512;13.460;2023-07-24T14:03:39;6.00;;;3.47;;
50549;SDS011;36505;52.512;13.460;2023-07-24T14:06:04;7.97;;;3.17;;
50549;SDS011;36505;52.512;13.460;2023-07-24T14:08:30;7.20;;;3.00;;
50549;SDS011;36505;52.512;13.460;2023-07-24T14:10:55;9.02;;;3.58;;
50549;SDS011;36505;52.512;13.460;2023-07-24T14:13:21;10.10;;;3.05;;
50549;SDS011;36505;52.512;13.460;2023-07-24T14:15:46;6.05;;;3.30;;
50549;SDS011;36505;52.512;13.460;2023-07-24T14:18:11;6.13;;;3.50;;
50549;SDS011;36505;52.512;13.460;2023-07-24T14:20:37;7.78;;;3.05;;
50549;SDS011;36505;52.512;13.460;2023-07-24T14:23:04;8.43;;;3.40;;
50549;SDS011;36505;52.512;13.460;2023-07-24T14:25:30;8.98;;;3.47;;
50549;SDS011;36505;52.512;13.460;2023-07-24T14:27:55;6.50;;;2.63;;
50549;SDS011;36505;52.512;13.460;2023-07-24T14:30:20;7.60;;;3.75;;
50549;SDS011;36505;52.512;13.460;2023-07-24T14:32:46;7.07;;;3.97;;